createdAt,value
2022-10-05T00:02:52.533Z,84.80
2022-10-05T00:05:54.402Z,84.60
2022-10-05T00:08:56.313Z,84.40
2022-10-05T00:11:58.567Z,84.20
2022-10-05T00:15:01.466Z,84.90
2022-10-05T00:18:14.208Z,86.00
2022-10-05T00:21:25.889Z,86.20
2022-10-05T00:24:30.007Z,85.70
2022-10-05T00:27:34.581Z,85.50
2022-10-05T00:30:36.641Z,85.20
2022-10-05T00:33:41.109Z,85.30
2022-10-05T00:36:43.932Z,85.40
2022-10-05T00:39:46.782Z,85.40
2022-10-05T00:43:07.833Z,85.30
2022-10-05T00:46:35.306Z,85.30
2022-10-05T00:49:59.077Z,85.10
2022-10-05T00:53:25.081Z,85.20
2022-10-05T00:56:47.021Z,85.20
2022-10-05T01:00:09.091Z,85.30
2022-10-05T01:03:24.369Z,85.00
2022-10-05T01:06:35.315Z,86.20
2022-10-05T01:09:45.703Z,86.50
2022-10-05T01:13:09.167Z,86.40
2022-10-05T01:16:31.323Z,85.30
2022-10-05T01:19:59.581Z,85.20
2022-10-05T01:23:04.777Z,85.40
2022-10-05T01:26:11.691Z,85.30
2022-10-05T01:29:26.347Z,85.30
2022-10-05T01:32:44.961Z,85.20
2022-10-05T01:36:05.365Z,85.30
2022-10-05T01:39:31.738Z,86.10
2022-10-05T01:42:51.972Z,86.80
2022-10-05T01:46:15.098Z,86.40
2022-10-05T01:49:36.365Z,86.60
2022-10-05T01:52:38.275Z,86.20
2022-10-05T01:56:02.124Z,86.40
2022-10-05T01:59:14.013Z,86.30
2022-10-05T02:05:50.504Z,86.20
2022-10-05T02:09:09.017Z,86.10
2022-10-05T02:12:19.021Z,86.30
2022-10-05T02:15:29.969Z,86.20
2022-10-05T02:18:38.837Z,86.50
2022-10-05T02:21:40.920Z,86.30
2022-10-05T02:25:05.311Z,85.80
2022-10-05T02:28:22.430Z,85.70
2022-10-05T02:31:45.238Z,85.40
2022-10-05T02:34:47.305Z,85.70
2022-10-05T02:38:05.513Z,85.30
2022-10-05T02:41:12.642Z,86.00
2022-10-05T02:44:14.932Z,85.70
2022-10-05T02:47:39.979Z,85.90
2022-10-05T02:50:54.082Z,85.70
2022-10-05T02:57:42.053Z,85.30
2022-10-05T03:01:07.757Z,85.20
2022-10-05T03:04:37.202Z,85.50
2022-10-05T03:07:58.818Z,85.90
2022-10-05T03:11:26.060Z,86.10
2022-10-05T03:14:59.352Z,86.40
2022-10-05T03:18:40.531Z,87.10
2022-10-05T03:22:32.934Z,87.20
2022-10-05T03:25:45.090Z,87.00
2022-10-05T03:29:40.047Z,87.60
2022-10-05T03:37:10.316Z,88.40
2022-10-05T03:44:38.634Z,88.30
2022-10-05T03:50:46.219Z,88.70
2022-10-05T03:53:55.418Z,88.80
2022-10-05T03:57:19.915Z,89.30
2022-10-05T04:00:23.247Z,89.50
2022-10-05T04:03:50.028Z,89.60
2022-10-05T04:06:54.286Z,89.50
2022-10-05T04:09:57.822Z,89.90
2022-10-05T04:13:25.814Z,89.80
2022-10-05T04:16:34.691Z,89.60
2022-10-05T04:19:57.497Z,89.50
2022-10-05T04:26:57.845Z,89.40
2022-10-05T04:30:12.784Z,89.40
2022-10-05T04:33:15.781Z,89.30
2022-10-05T04:36:27.129Z,89.20
2022-10-05T04:39:55.241Z,88.80
2022-10-05T04:43:06.491Z,88.90
2022-10-05T04:46:27.802Z,88.70
2022-10-05T04:49:45.776Z,88.80
2022-10-05T04:53:22.295Z,88.30
2022-10-05T04:56:40.148Z,88.10
2022-10-05T05:00:21.841Z,88.20
2022-10-05T05:04:06.866Z,87.80
2022-10-05T05:07:50.049Z,87.40
2022-10-05T05:11:17.408Z,87.80
2022-10-05T05:14:46.306Z,88.30
2022-10-05T05:18:02.695Z,88.30
2022-10-05T05:21:08.045Z,88.90
2022-10-05T05:24:25.046Z,89.20
2022-10-05T05:27:36.258Z,89.30
2022-10-05T05:30:51.619Z,89.60
2022-10-05T05:34:20.073Z,89.60
2022-10-05T05:37:52.885Z,90.20
2022-10-05T05:41:11.266Z,89.80
2022-10-05T05:44:21.857Z,89.80
2022-10-05T05:47:36.145Z,89.80
2022-10-05T05:51:07.585Z,89.70
2022-10-05T05:54:16.253Z,89.70
2022-10-05T05:57:43.012Z,89.80
2022-10-05T06:00:48.550Z,89.60
2022-10-05T06:04:01.641Z,89.60
2022-10-05T06:10:35.191Z,89.20
2022-10-05T06:13:43.618Z,89.20
2022-10-05T06:17:05.301Z,88.80
2022-10-05T06:20:27.681Z,88.40
2022-10-05T06:23:37.920Z,88.60
2022-10-05T06:27:04.981Z,88.70
2022-10-05T06:30:14.774Z,88.50
2022-10-05T06:33:37.272Z,88.20
2022-10-05T06:36:58.808Z,88.20
2022-10-05T06:40:09.947Z,88.50
2022-10-05T06:47:11.794Z,88.30
2022-10-05T06:50:38.462Z,87.80
2022-10-05T06:54:19.571Z,86.70
2022-10-05T06:57:43.650Z,86.00
2022-10-05T07:01:04.892Z,85.20
2022-10-05T07:04:31.304Z,84.80
2022-10-05T07:08:14.952Z,84.50
2022-10-05T07:11:56.425Z,83.70
2022-10-05T07:15:24.994Z,82.90
2022-10-05T07:25:17.438Z,76.30
2022-10-05T07:28:41.504Z,74.60
2022-10-05T07:31:56.705Z,71.60
2022-10-05T07:35:08.014Z,69.40
2022-10-05T07:38:31.085Z,67.60
2022-10-05T07:41:54.854Z,67.20
2022-10-05T07:45:34.053Z,65.00
2022-10-05T07:49:07.494Z,63.80
2022-10-05T07:55:51.688Z,63.70
2022-10-05T07:59:20.191Z,63.50
2022-10-05T08:02:41.297Z,62.90
2022-10-05T08:05:45.813Z,60.60
2022-10-05T08:13:20.231Z,57.50
2022-10-05T08:16:26.991Z,56.00
2022-10-05T08:19:39.175Z,55.40
2022-10-05T08:22:50.907Z,55.30
2022-10-05T08:26:11.938Z,54.60
2022-10-05T08:29:35.553Z,53.20
2022-10-05T08:32:40.468Z,52.20
2022-10-05T08:35:45.887Z,52.20
2022-10-05T08:38:51.657Z,52.10
2022-10-05T08:42:19.809Z,53.30
2022-10-05T08:45:50.672Z,53.50
2022-10-05T08:48:58.564Z,54.80
2022-10-05T08:52:22.455Z,54.00
2022-10-05T08:55:54.716Z,55.40
2022-10-05T08:59:15.191Z,54.70
2022-10-05T09:05:43.848Z,54.40
2022-10-05T09:09:17.575Z,53.30
2022-10-05T09:12:33.154Z,54.40
2022-10-05T09:15:44.381Z,54.20
2022-10-05T09:19:13.921Z,53.70
2022-10-05T09:22:36.716Z,53.70
2022-10-05T09:25:46.693Z,53.60
2022-10-05T09:29:13.226Z,53.00
2022-10-05T09:32:25.001Z,54.20
2022-10-05T09:35:45.113Z,53.70
2022-10-05T09:39:22.968Z,52.90
2022-10-05T09:42:46.491Z,53.40
2022-10-05T09:45:56.475Z,53.40
2022-10-05T09:49:32.875Z,52.80
2022-10-05T09:52:59.822Z,54.00
2022-10-05T09:56:06.069Z,54.30
2022-10-05T09:59:45.142Z,54.50
2022-10-05T10:03:17.897Z,53.50
2022-10-05T10:06:43.277Z,53.30
2022-10-05T10:10:24.766Z,53.20
2022-10-05T10:16:57.087Z,53.80
2022-10-05T10:20:07.092Z,52.90
2022-10-05T10:23:33.656Z,54.20
2022-10-05T10:27:02.786Z,53.10
2022-10-05T10:30:39.479Z,52.80
2022-10-05T10:33:47.267Z,52.40
2022-10-05T10:37:41.232Z,51.70
2022-10-05T10:40:55.035Z,52.50
2022-10-05T10:44:18.764Z,53.40
2022-10-05T11:03:56.322Z,51.70
2022-10-05T11:07:09.845Z,55.90
2022-10-05T11:10:24.519Z,56.60
2022-10-05T11:13:29.489Z,55.80
2022-10-05T11:16:34.514Z,55.20
2022-10-05T11:20:05.492Z,57.40
2022-10-05T11:23:29.321Z,57.60
2022-10-05T11:30:17.657Z,57.00
2022-10-05T11:33:51.639Z,56.30
2022-10-05T11:37:18.280Z,58.50
2022-10-05T11:40:32.337Z,58.60
2022-10-05T11:43:47.701Z,57.80
2022-10-05T11:46:52.738Z,57.30
2022-10-05T11:50:21.715Z,56.30
2022-10-05T11:53:37.069Z,56.70
2022-10-05T11:56:45.126Z,57.70
2022-10-05T12:03:37.761Z,58.30
2022-10-05T12:06:52.068Z,57.20
2022-10-05T12:10:17.378Z,57.40
2022-10-05T12:13:43.093Z,57.90
2022-10-05T12:17:15.144Z,57.80
2022-10-05T12:20:33.477Z,57.60
2022-10-05T12:23:42.488Z,57.10
2022-10-05T12:26:51.961Z,58.20
2022-10-05T12:30:05.339Z,58.40
2022-10-05T12:33:19.963Z,57.90
2022-10-05T12:36:59.294Z,57.60
2022-10-05T12:40:05.743Z,58.80
2022-10-05T12:43:26.079Z,57.50
2022-10-05T12:47:00.305Z,58.20
2022-10-05T12:50:21.446Z,58.20
2022-10-05T12:53:44.723Z,57.30
2022-10-05T12:57:08.579Z,59.00
2022-10-05T13:00:21.761Z,58.10
2022-10-05T13:03:31.029Z,57.70
2022-10-05T13:07:04.529Z,56.70
2022-10-05T13:10:40.908Z,58.30
2022-10-05T13:13:54.981Z,56.10
2022-10-05T13:17:46.060Z,58.00
2022-10-05T13:21:12.002Z,56.70
2022-10-05T13:24:23.446Z,58.90
2022-10-05T13:27:32.317Z,58.20
2022-10-05T13:30:35.596Z,57.60
2022-10-05T13:33:55.365Z,56.20
2022-10-05T13:37:15.740Z,57.30
2022-10-05T13:40:45.275Z,57.20
2022-10-05T13:47:30.689Z,57.10
2022-10-05T13:50:41.086Z,57.80
2022-10-05T13:53:49.155Z,56.90
2022-10-05T13:57:22.183Z,57.50
2022-10-05T14:00:27.099Z,57.10
2022-10-05T14:03:36.948Z,57.40
2022-10-05T14:06:39.340Z,57.20
2022-10-05T14:09:49.302Z,58.10
2022-10-05T14:12:54.219Z,56.80
2022-10-05T14:16:18.514Z,57.90
2022-10-05T14:22:30.187Z,58.00
2022-10-05T14:25:47.353Z,57.40
2022-10-05T14:29:14.978Z,57.00
2022-10-05T14:32:22.318Z,57.40
2022-10-05T14:35:28.224Z,58.80
2022-10-05T14:38:36.075Z,58.00
2022-10-05T14:41:46.062Z,57.90
2022-10-05T14:44:58.485Z,57.50
2022-10-05T14:48:00.374Z,58.50
2022-10-05T14:51:02.575Z,58.20
2022-10-05T14:54:32.594Z,57.00
2022-10-05T14:57:54.851Z,57.00
2022-10-05T15:01:07.162Z,58.70
2022-10-05T15:04:32.631Z,58.60
2022-10-05T15:07:42.177Z,58.90
2022-10-05T15:10:59.878Z,58.80
2022-10-05T15:14:06.780Z,58.80
2022-10-05T15:17:31.568Z,58.90
2022-10-05T15:20:59.249Z,57.70
2022-10-05T15:24:03.080Z,58.60
2022-10-05T15:27:26.733Z,57.20
2022-10-05T15:30:29.157Z,57.20
2022-10-05T15:40:00.617Z,57.50
2022-10-05T15:43:17.639Z,57.70
2022-10-05T15:46:35.452Z,56.70
2022-10-05T15:50:00.164Z,56.10
2022-10-05T15:53:40.677Z,56.90
2022-10-05T15:56:51.818Z,57.20
2022-10-05T16:00:14.184Z,56.00
2022-10-05T16:06:52.066Z,56.10
2022-10-05T16:10:03.228Z,56.40
2022-10-05T16:13:40.563Z,56.10
2022-10-05T16:17:09.969Z,56.40
2022-10-05T16:20:33.514Z,56.50
2022-10-05T16:23:58.364Z,56.70
2022-10-05T16:27:06.853Z,55.90
2022-10-05T16:30:23.269Z,56.20
2022-10-05T16:34:03.978Z,56.60
2022-10-05T16:40:39.914Z,56.70
2022-10-05T16:44:25.098Z,57.20
2022-10-05T16:47:51.801Z,57.30
2022-10-05T16:51:16.671Z,58.10
2022-10-05T16:54:47.657Z,59.90
2022-10-05T16:57:53.939Z,59.00
2022-10-05T17:01:23.757Z,60.70
2022-10-05T17:04:47.006Z,61.80
2022-10-05T17:07:55.877Z,60.60
2022-10-05T17:11:06.817Z,60.90
2022-10-05T17:17:41.002Z,61.50
2022-10-05T17:21:02.116Z,62.10
2022-10-05T17:24:22.126Z,62.80
2022-10-05T17:27:36.016Z,63.20
2022-10-05T17:30:56.074Z,63.70
2022-10-05T17:34:07.185Z,63.80
2022-10-05T17:37:18.308Z,64.50
2022-10-05T17:40:34.358Z,66.10
2022-10-05T17:43:36.583Z,65.50
2022-10-05T17:46:42.395Z,65.90
2022-10-05T17:49:59.757Z,67.50
2022-10-05T17:53:39.459Z,67.30
2022-10-05T17:56:47.634Z,69.70
2022-10-05T17:59:53.047Z,70.50
2022-10-05T18:02:55.395Z,72.40
2022-10-05T18:06:22.419Z,73.40
2022-10-05T18:09:24.412Z,72.70
2022-10-05T18:12:38.435Z,74.90
2022-10-05T18:15:45.092Z,75.30
2022-10-05T18:18:55.503Z,75.10
2022-10-05T18:25:49.582Z,76.80
2022-10-05T18:29:17.741Z,77.70
2022-10-05T18:32:43.663Z,78.40
2022-10-05T18:36:14.793Z,78.90
2022-10-05T18:39:37.924Z,78.20
2022-10-05T18:42:50.441Z,78.70
2022-10-05T18:46:13.368Z,79.20
2022-10-05T18:49:39.996Z,80.00
2022-10-05T18:53:02.493Z,79.40
2022-10-05T18:56:28.280Z,79.40
2022-10-05T18:59:43.693Z,79.30
2022-10-05T19:03:01.703Z,78.80
2022-10-05T19:06:22.181Z,76.90
2022-10-05T19:09:40.848Z,75.00
2022-10-05T19:16:14.878Z,71.90
2022-10-05T19:19:47.290Z,71.80
2022-10-05T19:23:16.384Z,69.40
2022-10-05T19:26:37.482Z,68.50
2022-10-05T19:29:45.367Z,68.30
2022-10-05T19:37:33.174Z,66.50
2022-10-05T19:40:41.898Z,66.90
2022-10-05T19:44:11.367Z,68.40
2022-10-05T19:47:31.968Z,69.90
2022-10-05T19:50:35.710Z,70.70
2022-10-05T19:53:43.999Z,70.50
2022-10-05T19:56:51.247Z,69.90
2022-10-05T19:59:57.368Z,70.20
2022-10-05T20:03:19.092Z,70.00
2022-10-05T20:06:21.512Z,69.00
2022-10-05T20:09:23.962Z,69.60
2022-10-05T20:12:49.309Z,69.00
2022-10-05T20:16:07.820Z,68.20
2022-10-05T20:19:32.688Z,68.40
2022-10-05T20:22:40.048Z,67.70
2022-10-05T20:25:42.651Z,67.60
2022-10-05T20:28:45.029Z,67.50
2022-10-05T20:31:47.619Z,67.80
2022-10-05T20:34:49.689Z,68.30
2022-10-05T20:37:52.274Z,67.20
2022-10-05T20:40:54.787Z,66.80
2022-10-05T20:43:57.780Z,67.40
2022-10-05T20:47:00.201Z,66.40
2022-10-05T20:50:02.427Z,66.20
2022-10-05T20:53:08.439Z,66.60
2022-10-05T20:56:13.775Z,67.40
2022-10-05T21:22:32.085Z,68.50
2022-10-05T21:25:34.031Z,68.70
2022-10-05T21:28:35.953Z,68.80
2022-10-05T21:31:38.454Z,68.90
2022-10-05T21:34:41.410Z,69.20
2022-10-05T21:37:43.319Z,69.30
2022-10-05T21:40:47.647Z,69.30
2022-10-05T21:43:49.627Z,69.30
2022-10-05T21:46:52.068Z,69.40
2022-10-05T21:49:54.256Z,69.80
2022-10-05T21:52:56.163Z,69.90
2022-10-05T21:56:02.767Z,70.50
2022-10-05T21:59:08.763Z,70.50
2022-10-05T22:02:10.588Z,70.10
2022-10-05T22:05:12.527Z,70.00
2022-10-05T22:08:32.341Z,69.50
2022-10-05T22:11:34.448Z,69.90
2022-10-05T22:14:36.385Z,69.40
2022-10-05T22:17:40.065Z,69.30
2022-10-05T22:20:42.087Z,69.00
2022-10-05T22:23:45.821Z,69.00
2022-10-05T22:26:49.203Z,69.50
2022-10-05T22:29:51.438Z,69.00
2022-10-05T22:32:53.242Z,69.00
2022-10-05T22:35:56.881Z,69.40
2022-10-05T22:38:58.772Z,69.60
2022-10-05T22:42:00.685Z,69.40
2022-10-05T22:45:02.596Z,69.00
2022-10-05T22:48:04.611Z,69.30
2022-10-05T22:51:06.729Z,68.70
2022-10-05T22:54:08.624Z,69.10
2022-10-05T22:57:10.504Z,69.50
2022-10-05T23:00:13.208Z,69.50
2022-10-05T23:03:15.895Z,69.10
2022-10-05T23:06:19.902Z,68.70
2022-10-05T23:09:24.062Z,69.20
2022-10-05T23:12:25.931Z,68.70
2022-10-05T23:15:28.244Z,68.50
2022-10-05T23:18:30.499Z,68.80
2022-10-05T23:21:32.917Z,68.80
2022-10-05T23:24:34.714Z,68.60
2022-10-05T23:27:40.788Z,68.90
2022-10-05T23:30:42.690Z,68.60
2022-10-05T23:33:44.787Z,68.40
2022-10-05T23:36:46.712Z,68.70
2022-10-05T23:39:48.659Z,68.40
2022-10-05T23:42:50.548Z,69.80
2022-10-05T23:45:52.630Z,70.30
2022-10-05T23:48:54.415Z,69.50
2022-10-05T23:51:56.277Z,70.00
2022-10-05T23:54:58.205Z,69.70
2022-10-05T23:58:00.109Z,70.30
